Rewey, WI (53580)

04:07 PM CST die 18o February, anno 2018 (GMT -0600)
Rural Livingston | | Change Station
Active Advisory: Winter Weather Advisory

Elev 1142 ft 42.93 °N, 90.41 °W | Updated 4 minutes ago

Plerumque Nubila
Plerumque Nubila
34.7 °F
Feels Like 25 °F
N
16.0
Ventus Variabilis Ventus from Inter Austrum et Eurum

Hodie
High -- | Low -- °F
--% Chance of Precip.
Yesterday
High -- | Low -- °F
Precip. -- in
Pressio 29.84 in
Visibilitas 10.0 milia passuum
Clouds Nubes Dispersae 10000 ft
Frigus Venti 25 °F
Frigus in quo Ros apparet 30 °F
Umor 85%
Rainfall 0.00 in
Snow Depth Not available.
6:54 AM 5:37 PM
Waxing Crescent, 9% visible
METAR KMRJ 182155Z AUTO 14016G22KT 10SM SCT100 02/00 A2984 RMK AO2
Pressio 29.84 in
Visibilitas 10.0 milia passuum
Clouds Nubes Dispersae 10000 ft
Frigus Venti 25 °F
Frigus in quo Ros apparet 30 °F
Umor 85%
Rainfall 0.00 in
Snow Depth Not available.
6:54 AM 5:37 PM
Waxing Crescent, 9% visible
METAR KMRJ 182155Z AUTO 14016G22KT 10SM SCT100 02/00 A2984 RMK AO2

Get Your Daily Forecast Email!

Thanks for signing up!

Be on the lookout for a verification email in your inbox.

You'll start receiving severe weather alerts in your inbox..

×

10-Day Weather Forecast

Almanac

Astronomy

Feb. 18, 2018 Rise Set
Actual Time
Civil Twilight
Nautical Twilight
Astronomical Twilight
Moon
Length Of Visible Light
Length of Day
Tomorrow will be .
, % of the Moon is Illuminated

Today's Extremes

State Highs State Lows

Community

WunderPhotos

Category 6

Welcome to Category 6. This is the collective home for Weather Underground's featured writeups by Dr. Jeff Masters (right), Bob Henson (left), Chris Burt, and other regular contributors.

Nearby

Air Quality

  Air Quality AQ Index Pollutant
Not available.

Snow Depth

Station Depth Elevation

Earthquake Activity

City Distance Mag. Time & Date
Minimum magnitude displayed is 2.5.

Coastal Water Temperatures

Locus Calor

Stations

Nearby Weather Stations

Station Location Temp Frigus Venti Frigus in quo Ros apparet Umor Ventus Precip. Elev Renovata Type
                   

Watches & Warnings

Winter Weather Advisory
Issued: 12:45 PM CST Feb. 18, 2018 – National Weather Service

... Winter Weather Advisory in effect from 6 PM Monday to 6 PM CST
Tuesday...

* what... freezing rain expected. Total ice accumulations of
around one to two tenths are expected.

* Where... Washington, Iowa and Dane counties.

* When... from 6 PM Monday to 6 PM CST Tuesday.

* Additional details... the ice will result in difficult travel
conditions, including during the morning commute on Tuesday.

Precautionary/preparedness actions...

A Winter Weather Advisory means that periods of freezing rain
will cause travel difficulties. Be prepared for slippery roads.
Slow down and use caution while driving. The latest Road
conditions for the state you are calling from can be obtained by
calling 5 1 1.